Time;durP1;ratioP1;P1;durP2;ratioP2;P2;SDS_P1;SDS_P2;PMS_P1;PMS_P2;Temp;Humidity;BMP_temperature;BMP_pressure;BME280_temperature;BME280_humidity;BME280_pressure;Samples;Min_cycle;Max_cycle;Signal;HPM_P1;HPM_P2
2021/06/07 00:00:08;;;;;;;0.10;0.10;;;;;;;12.64;100.00;93485.00;2097938;28;20062;-89
2021/06/07 00:01:10;;;;;;;0.10;0.10;;;;;;;12.66;100.00;93484.59;2106519;28;20864;-88
2021/06/07 00:02:11;;;;;;;0.10;0.10;;;;;;;12.62;100.00;93478.53;2098358;28;20512;-88
2021/06/07 00:03:12;;;;;;;0.20;0.10;;;;;;;12.61;100.00;93485.84;2089717;28;20021;-88
2021/06/07 00:04:13;;;;;;;0.10;0.10;;;;;;;12.67;100.00;93478.78;2098136;28;20020;-88
2021/06/07 00:05:15;;;;;;;0.10;0.10;;;;;;;12.59;100.00;93478.19;2097567;28;20536;-88
2021/06/07 00:06:17;;;;;;;0.10;0.10;;;;;;;12.62;100.00;93481.22;2089991;28;20024;-88
2021/06/07 00:07:18;;;;;;;0.10;0.10;;;;;;;12.63;100.00;93483.47;2098173;28;20073;-88
2021/06/07 00:08:18;;;;;;;0.10;0.10;;;;;;;12.68;100.00;93484.91;2089649;28;20436;-88
2021/06/07 00:09:19;;;;;;;0.10;0.10;;;;;;;12.66;100.00;93487.28;2098328;28;20071;-88
2021/06/07 00:10:20;;;;;;;0.20;0.20;;;;;;;12.66;100.00;93484.59;2098035;28;20025;-89
2021/06/07 00:11:22;;;;;;;0.10;0.10;;;;;;;12.60;100.00;93493.13;2097976;28;20036;-89
2021/06/07 00:12:23;;;;;;;0.10;0.10;;;;;;;12.64;100.00;93486.91;2089899;28;20494;-90
2021/06/07 00:13:26;;;;;;;0.10;0.10;;;;;;;12.64;100.00;93489.59;2091279;28;20116;-88
2021/06/07 00:14:31;;;;;;;0.13;0.13;;;;;;;12.67;100.00;93491.44;2097747;28;20039;-87
2021/06/07 00:15:34;;;;;;;0.15;0.15;;;;;;;12.67;100.00;93481.47;2090810;28;20103;-87
2021/06/07 00:16:36;;;;;;;0.10;0.10;;;;;;;12.70;100.00;93485.25;2090183;28;20819;-89
2021/06/07 00:17:38;;;;;;;0.10;0.10;;;;;;;12.69;100.00;93489.88;2106272;28;20026;-88
2021/06/07 00:18:39;;;;;;;0.13;0.13;;;;;;;12.68;100.00;93485.66;2098024;28;20024;-90
2021/06/07 00:19:41;;;;;;;0.10;0.10;;;;;;;12.66;100.00;93481.91;2089617;28;20397;-89
2021/06/07 00:20:48;;;;;;;0.10;0.10;;;;;;;12.56;100.00;93476.38;2098259;28;20032;-87
2021/06/07 00:21:49;;;;;;;0.10;0.10;;;;;;;12.61;100.00;93483.16;2098857;28;20171;-89
2021/06/07 00:22:50;;;;;;;0.10;0.10;;;;;;;12.60;100.00;93477.03;2098052;28;20024;-88
2021/06/07 00:23:52;;;;;;;0.10;0.10;;;;;;;12.61;100.00;93488.53;2100271;28;20734;-86
2021/06/07 00:24:52;;;;;;;0.10;0.10;;;;;;;12.64;100.00;93478.88;2089779;28;20466;-87
2021/06/07 00:25:53;;;;;;;0.10;0.10;;;;;;;12.63;100.00;93478.13;2089489;28;20029;-89
2021/06/07 00:26:54;;;;;;;0.10;0.10;;;;;;;12.63;100.00;93480.81;2097675;28;20596;-88
2021/06/07 00:27:55;;;;;;;0.20;0.20;;;;;;;12.62;100.00;93481.97;2098020;28;20662;-89
2021/06/07 00:28:56;;;;;;;0.10;0.10;;;;;;;12.62;100.00;93483.91;2097753;28;20028;-88
2021/06/07 00:29:57;;;;;;;0.10;0.10;;;;;;;12.62;100.00;93484.66;2097616;28;20031;-87
2021/06/07 00:30:59;;;;;;;0.10;0.10;;;;;;;12.62;100.00;93475.88;2089889;28;20377;-89
2021/06/07 00:32:00;;;;;;;0.10;0.10;;;;;;;12.60;100.00;93484.34;2097986;28;20401;-90
2021/06/07 00:33:00;;;;;;;0.10;0.10;;;;;;;12.58;100.00;93484.75;2103474;28;20078;-88
2021/06/07 00:34:02;;;;;;;0.10;0.10;;;;;;;12.59;100.00;93485.50;2095983;28;20028;-89
2021/06/07 00:35:03;;;;;;;0.10;0.10;;;;;;;12.60;100.00;93482.41;2091211;28;20025;-88
2021/06/07 00:36:06;;;;;;;0.10;0.10;;;;;;;12.58;100.00;93478.63;2093273;28;20421;-88
2021/06/07 00:37:07;;;;;;;0.10;0.10;;;;;;;12.58;100.00;93478.63;2093971;28;20228;-90
2021/06/07 00:38:08;;;;;;;0.10;0.10;;;;;;;12.59;100.00;93485.50;2091721;28;20021;-89
2021/06/07 00:39:14;;;;;;;0.10;0.10;;;;;;;12.58;100.00;93478.63;2106024;28;20024;-89
2021/06/07 00:40:17;;;;;;;0.15;0.15;;;;;;;12.57;100.00;93477.13;2090802;28;20032;-88
2021/06/07 00:41:19;;;;;;;0.10;0.10;;;;;;;12.63;100.00;93480.06;2098196;28;20079;-88
2021/06/07 00:42:20;;;;;;;0.10;0.10;;;;;;;12.62;100.00;93487.34;2097698;28;20492;-89
2021/06/07 00:43:21;;;;;;;0.10;0.10;;;;;;;12.63;100.00;93477.38;2094800;28;20108;-90
2021/06/07 00:44:22;;;;;;;0.10;0.10;;;;;;;12.65;100.00;93475.78;2097620;28;20029;-90
2021/06/07 00:45:26;;;;;;;0.10;0.10;;;;;;;12.62;100.00;93471.25;2088727;28;20028;-88
2021/06/07 00:46:27;;;;;;;0.10;0.10;;;;;;;12.62;100.00;93473.19;2098366;28;20438;-89
2021/06/07 00:47:29;;;;;;;0.10;0.10;;;;;;;12.64;100.00;93478.88;2096948;28;20033;-89
2021/06/07 00:48:31;;;;;;;0.10;0.10;;;;;;;12.60;100.00;93477.03;2097709;28;20468;-88
2021/06/07 00:49:32;;;;;;;0.10;0.10;;;;;;;12.60;100.00;93478.97;2097980;28;20357;-89
2021/06/07 00:50:39;;;;;;;0.10;0.10;;;;;;;12.57;100.00;93479.81;2097888;28;20523;-88
2021/06/07 00:51:41;;;;;;;0.17;0.17;;;;;;;12.60;100.00;93471.69;2086065;28;20025;-89
2021/06/07 00:53:00;;;;;;;0.10;0.10;;;;;;;12.59;100.00;93475.50;2089933;28;20103;-88
2021/06/07 00:54:02;;;;;;;0.15;0.15;;;;;;;12.66;100.00;93474.59;2099986;28;20020;-89
2021/06/07 00:55:04;;;;;;;0.10;0.10;;;;;;;12.68;100.00;93474.94;2089488;28;20021;-90
2021/06/07 00:56:08;;;;;;;0.10;0.10;;;;;;;12.64;100.00;93478.88;2095155;28;20020;-90
2021/06/07 00:57:09;;;;;;;0.10;0.10;;;;;;;12.63;100.00;93478.13;2092785;28;20033;-90
2021/06/07 00:58:10;;;;;;;0.20;0.10;;;;;;;12.58;100.00;93474.00;2089587;28;20033;-88
2021/06/07 00:59:11;;;;;;;0.10;0.10;;;;;;;12.57;100.00;93474.44;2094285;28;20572;-88
2021/06/07 01:00:13;;;;;;;0.10;0.10;;;;;;;12.62;100.00;93478.53;2097421;28;20035;-90
2021/06/07 01:01:18;;;;;;;0.10;0.10;;;;;;;12.57;100.00;93469.09;2089712;28;20067;-88
2021/06/07 01:02:18;;;;;;;0.10;0.10;;;;;;;12.55;100.00;93482.88;2090611;28;20108;-88
2021/06/07 01:03:21;;;;;;;0.10;0.10;;;;;;;12.56;100.00;93481.00;2097219;28;20404;-89
2021/06/07 01:04:22;;;;;;;0.10;0.10;;;;;;;12.57;100.00;93477.13;2095231;28;20029;-88
2021/06/07 01:05:23;;;;;;;0.10;0.10;;;;;;;12.56;100.00;93473.69;2097349;28;20032;-88
2021/06/07 01:06:25;;;;;;;0.10;0.10;;;;;;;12.55;100.00;93474.09;2102651;28;20036;-87
2021/06/07 01:07:25;;;;;;;0.10;0.10;;;;;;;12.55;100.00;93468.72;2106059;28;20027;-89
2021/06/07 01:08:26;;;;;;;0.10;0.10;;;;;;;12.56;100.00;93470.25;2097310;28;20024;-89
2021/06/07 01:09:27;;;;;;;0.10;0.10;;;;;;;12.55;100.00;93474.09;2097511;28;20021;-87
2021/06/07 01:10:28;;;;;;;0.10;0.10;;;;;;;12.54;100.00;93469.91;2089103;28;20036;-88
2021/06/07 01:11:29;;;;;;;0.10;0.10;;;;;;;12.56;100.00;93470.25;2089260;28;20029;-88
2021/06/07 01:12:29;;;;;;;0.10;0.10;;;;;;;12.55;100.00;93464.13;2097180;28;20020;-88
2021/06/07 01:13:30;;;;;;;0.10;0.10;;;;;;;12.56;100.00;93465.66;2097370;28;20619;-88
2021/06/07 01:14:31;;;;;;;0.10;0.10;;;;;;;12.57;100.00;93469.84;2087019;28;20094;-88
2021/06/07 01:15:31;;;;;;;0.10;0.10;;;;;;;12.52;100.00;93467.66;2089010;28;20049;-88
2021/06/07 01:16:33;;;;;;;0.10;0.10;;;;;;;12.55;100.00;93469.47;2089295;28;20096;-88
2021/06/07 01:17:33;;;;;;;0.10;0.10;;;;;;;12.58;100.00;93468.66;2094510;28;20482;-88
2021/06/07 01:18:34;;;;;;;0.10;0.10;;;;;;;12.62;100.00;93470.50;2097311;28;20054;-87
2021/06/07 01:19:35;;;;;;;0.10;0.10;;;;;;;12.53;100.00;93466.47;2096892;28;20127;-89
2021/06/07 01:20:36;;;;;;;0.10;0.10;;;;;;;12.47;100.00;93470.84;2089114;28;20032;-90
2021/06/07 01:21:37;;;;;;;0.10;0.10;;;;;;;12.46;100.00;93461.28;2087142;28;20049;-88
2021/06/07 01:22:38;;;;;;;0.10;0.10;;;;;;;12.48;100.00;93460.88;2094518;28;20079;-88
2021/06/07 01:23:41;;;;;;;0.10;0.10;;;;;;;12.47;100.00;93460.13;2100643;28;20031;-88
2021/06/07 01:24:42;;;;;;;0.10;0.10;;;;;;;12.49;100.00;93460.44;2096600;28;20024;-89
2021/06/07 01:25:44;;;;;;;0.10;0.10;;;;;;;12.51;100.00;93463.47;2097348;28;20644;-88
2021/06/07 01:26:45;;;;;;;0.10;0.10;;;;;;;12.55;100.00;93460.69;2097587;28;20025;-88
2021/06/07 01:27:47;;;;;;;0.10;0.10;;;;;;;12.53;100.00;93463.03;2097635;28;20044;-88
2021/06/07 01:28:49;;;;;;;0.10;0.10;;;;;;;12.53;100.00;93457.69;2097120;28;20020;-89
2021/06/07 01:29:50;;;;;;;0.10;0.10;;;;;;;12.53;100.00;93457.69;2095905;28;20034;-89
2021/06/07 01:30:51;;;;;;;0.10;0.10;;;;;;;12.52;100.00;93454.25;2081056;28;20025;-88
2021/06/07 01:31:52;;;;;;;0.10;0.10;;;;;;;12.54;100.00;93457.25;2089464;28;20821;-88
2021/06/07 01:32:53;;;;;;;0.10;0.10;;;;;;;12.55;100.00;93456.06;2097606;28;20024;-87
2021/06/07 01:33:54;;;;;;;0.10;0.10;;;;;;;12.56;100.00;93462.22;2105760;28;20086;-88
2021/06/07 01:34:55;;;;;;;0.10;0.10;;;;;;;12.53;100.00;93449.63;2105691;28;20032;-87
2021/06/07 01:35:58;;;;;;;0.10;0.10;;;;;;;12.49;100.00;93452.41;2097193;28;20098;-88
2021/06/07 01:36:59;;;;;;;0.10;0.10;;;;;;;12.47;100.00;93452.06;2094493;28;20060;-88
2021/06/07 01:38:00;;;;;;;0.10;0.10;;;;;;;12.48;100.00;93444.78;2097414;28;20024;-88
2021/06/07 01:39:00;;;;;;;0.10;0.10;;;;;;;12.51;100.00;93449.28;2097415;28;20119;-89
2021/06/07 01:40:05;;;;;;;0.10;0.10;;;;;;;12.47;100.00;93451.31;2097085;28;20028;-88
2021/06/07 01:41:09;;;;;;;0.10;0.10;;;;;;;12.52;100.00;93448.88;2092847;28;20028;-88
2021/06/07 01:42:10;;;;;;;0.10;0.10;;;;;;;12.56;100.00;93444.19;2097748;28;20098;-88
2021/06/07 01:43:12;;;;;;;0.10;0.10;;;;;;;12.54;100.00;93445.78;2097429;28;20411;-88
2021/06/07 01:44:13;;;;;;;0.10;0.10;;;;;;;12.57;100.00;93443.00;2095199;28;20754;-88
2021/06/07 01:45:18;;;;;;;0.10;0.10;;;;;;;12.54;100.00;93451.13;2099715;28;20032;-88
2021/06/07 01:46:19;;;;;;;0.10;0.10;;;;;;;12.53;100.00;93445.03;2097821;28;20089;-88
2021/06/07 01:47:19;;;;;;;0.10;0.10;;;;;;;12.54;100.00;93445.78;2095889;28;20012;-89
2021/06/07 01:48:21;;;;;;;0.10;0.10;;;;;;;12.52;100.00;93440.09;2092410;28;20075;-87
2021/06/07 01:49:22;;;;;;;0.10;0.10;;;;;;;12.56;100.00;93446.13;2101480;28;20058;-87
2021/06/07 01:50:22;;;;;;;0.13;0.13;;;;;;;12.55;100.00;93441.91;2097080;28;20048;-88
2021/06/07 01:51:23;;;;;;;0.10;0.10;;;;;;;12.55;100.00;93442.66;2093420;28;20020;-88
2021/06/07 01:52:24;;;;;;;0.10;0.10;;;;;;;12.53;100.00;93438.91;2095266;28;20111;-87
2021/06/07 01:53:27;;;;;;;0.10;0.10;;;;;;;12.53;100.00;93450.38;2096627;28;20056;-88
2021/06/07 01:54:27;;;;;;;0.10;0.10;;;;;;;12.53;100.00;93442.34;2081201;28;20025;-87
2021/06/07 01:55:35;;;;;;;0.10;0.10;;;;;;;12.51;100.00;93446.59;2091377;28;20032;-87
2021/06/07 01:56:35;;;;;;;0.10;0.10;;;;;;;12.55;100.00;93436.56;2090442;28;20133;-88
2021/06/07 01:57:36;;;;;;;0.10;0.10;;;;;;;12.49;100.00;93443.59;2086049;28;20021;-88
2021/06/07 01:58:39;;;;;;;0.10;0.10;;;;;;;12.49;100.00;93443.59;2101738;28;20069;-88
2021/06/07 01:59:40;;;;;;;0.10;0.10;;;;;;;12.51;100.00;93442.03;2097291;28;20169;-89
2021/06/07 02:00:51;;;;;;;0.10;0.10;;;;;;;12.50;100.00;93440.50;2104672;28;20047;-89
2021/06/07 02:01:54;;;;;;;0.10;0.10;;;;;;;12.51;100.00;93446.59;2099809;28;20074;-90
2021/06/07 02:02:54;;;;;;;0.10;0.10;;;;;;;12.49;100.00;93449.72;2093782;28;20040;-88
2021/06/07 02:05:38;;;;;;;;;;;;;;;12.52;100.00;93443.53;2141844;27;20122;-87
2021/06/07 02:06:39;;;;;;;0.10;0.10;;;;;;;12.51;100.00;93438.56;2121372;27;19955;-88
2021/06/07 02:07:45;;;;;;;0.10;0.10;;;;;;;12.51;100.00;93439.34;2106755;28;20086;-87
2021/06/07 02:08:46;;;;;;;0.10;0.10;;;;;;;12.49;100.00;93435.56;2125975;27;20423;-88
2021/06/07 02:09:47;;;;;;;0.10;0.10;;;;;;;12.47;100.00;93443.28;2124834;27;20503;-90
2021/06/07 02:10:54;;;;;;;0.10;0.10;;;;;;;12.47;100.00;93443.28;2118635;28;20106;-87
2021/06/07 02:11:55;;;;;;;0.10;0.10;;;;;;;12.47;100.00;93436.00;2122451;27;20032;-90
2021/06/07 02:12:56;;;;;;;0.10;0.10;;;;;;;12.44;100.00;93442.19;2124901;27;20058;-89
2021/06/07 02:14:01;;;;;;;0.10;0.10;;;;;;;12.46;100.00;93434.47;2124272;27;20137;-87
2021/06/07 02:15:05;;;;;;;0.10;0.10;;;;;;;12.47;100.00;93435.25;2116487;27;20034;-87
2021/06/07 02:16:33;;;;;;;0.10;0.10;;;;;;;12.44;100.00;93436.06;2109494;27;20454;-89
2021/06/07 02:17:34;;;;;;;0.10;0.10;;;;;;;12.45;100.00;93437.56;2107389;27;20043;-85
2021/06/07 02:18:37;;;;;;;0.10;0.10;;;;;;;12.39;100.00;93442.69;2123309;27;20023;-86
2021/06/07 02:19:39;;;;;;;0.10;0.10;;;;;;;12.44;100.00;93436.06;2121901;27;20026;-87
2021/06/07 02:20:39;;;;;;;0.15;0.15;;;;;;;12.45;100.00;93438.31;2114317;27;20032;-87
2021/06/07 02:21:41;;;;;;;0.10;0.10;;;;;;;12.49;100.00;93433.63;2115821;28;20028;-86
2021/06/07 02:22:43;;;;;;;0.10;0.10;;;;;;;12.50;100.00;93432.44;2106070;27;20035;-89
2021/06/07 02:23:44;;;;;;;0.10;0.10;;;;;;;12.50;100.00;93434.38;2113423;27;20019;-86
2021/06/07 02:24:45;;;;;;;0.10;0.10;;;;;;;12.49;100.00;93430.19;2115822;28;20020;-87
2021/06/07 02:25:46;;;;;;;0.10;0.10;;;;;;;12.48;100.00;93432.13;2123350;27;20441;-90
2021/06/07 02:26:46;;;;;;;0.10;0.10;;;;;;;12.47;100.00;93440.59;2115200;28;20023;-86
2021/06/07 02:27:48;;;;;;;0.10;0.10;;;;;;;12.50;100.00;93435.13;2115322;27;20024;-87
2021/06/07 02:28:52;;;;;;;0.10;0.10;;;;;;;12.49;100.00;93441.66;2114998;27;20024;-88
2021/06/07 02:29:53;;;;;;;0.10;0.10;;;;;;;12.48;100.00;93436.75;2113926;27;20055;-90
2021/06/07 02:30:54;;;;;;;0.10;0.10;;;;;;;12.46;100.00;93431.03;2112773;27;20102;-87
2021/06/07 02:31:54;;;;;;;0.10;0.10;;;;;;;12.47;100.00;93436.00;2107127;28;20023;-89
2021/06/07 02:32:57;;;;;;;0.10;0.10;;;;;;;12.50;100.00;93437.06;2114063;28;20023;-88
2021/06/07 02:33:59;;;;;;;0.30;0.20;;;;;;;12.44;100.00;93431.47;2113943;28;20027;-86
2021/06/07 02:35:00;;;;;;;0.10;0.10;;;;;;;12.43;100.00;93434.56;2114432;28;20309;-86
2021/06/07 02:36:02;;;;;;;0.10;0.10;;;;;;;12.46;100.00;93431.78;2113099;27;20530;-88
2021/06/07 02:37:03;;;;;;;0.35;0.10;;;;;;;12.61;100.00;93429.53;2120844;27;20031;-86
2021/06/07 02:38:05;;;;;;;0.10;0.10;;;;;;;12.56;100.00;93435.41;2132635;27;20033;-88
2021/06/07 02:39:09;;;;;;;0.10;0.10;;;;;;;12.55;100.00;93436.56;2123950;27;20113;-86
2021/06/07 02:40:12;;;;;;;0.10;0.10;;;;;;;12.54;100.00;93432.38;2114029;28;20031;-87
2021/06/07 02:41:13;;;;;;;0.10;0.10;;;;;;;12.46;100.00;93429.09;2114683;27;20031;-86
2021/06/07 02:42:14;;;;;;;0.13;0.13;;;;;;;12.47;100.00;93435.25;2123819;27;20109;-87
2021/06/07 02:43:16;;;;;;;0.10;0.10;;;;;;;12.45;100.00;93430.28;2124167;27;20023;-86
2021/06/07 02:44:21;;;;;;;0.10;0.10;;;;;;;12.39;100.00;93439.25;2106042;27;20017;-88
2021/06/07 02:45:23;;;;;;;0.10;0.10;;;;;;;12.39;100.00;93437.31;2109111;27;20601;-87
2021/06/07 02:46:23;;;;;;;0.20;0.20;;;;;;;12.42;100.00;93425.75;2114773;28;20023;-87
2021/06/07 02:47:24;;;;;;;0.10;0.10;;;;;;;12.40;100.00;93441.50;2122807;27;20078;-87
2021/06/07 02:48:25;;;;;;;0.15;0.15;;;;;;;12.43;100.00;93440.69;2122875;27;20440;-85
2021/06/07 02:49:25;;;;;;;0.10;0.10;;;;;;;12.47;100.00;93440.59;2113576;28;20517;-88
2021/06/07 02:50:29;;;;;;;0.10;0.10;;;;;;;12.49;100.00;93430.19;2115756;28;20434;-85
2021/06/07 02:51:30;;;;;;;0.10;0.10;;;;;;;12.48;100.00;93444.78;2115787;27;20120;-85
2021/06/07 02:52:31;;;;;;;0.10;0.10;;;;;;;12.41;100.00;93437.66;2123995;27;20023;-84
2021/06/07 02:53:32;;;;;;;0.10;0.10;;;;;;;12.40;100.00;93433.47;2124174;27;20503;-86
2021/06/07 02:54:32;;;;;;;0.10;0.10;;;;;;;12.44;100.00;93436.81;2122008;27;20023;-88
2021/06/07 02:55:48;;;;;;;0.10;0.10;;;;;;;12.45;100.00;93432.22;2122102;27;20030;-86
2021/06/07 02:56:49;;;;;;;0.10;0.10;;;;;;;12.47;100.00;93432.56;2117014;27;20028;-88
2021/06/07 02:57:52;;;;;;;0.10;0.10;;;;;;;12.46;100.00;93431.03;2122710;27;20724;-90
2021/06/07 02:58:52;;;;;;;0.13;0.13;;;;;;;12.43;100.00;93434.56;2122229;27;20667;-85
2021/06/07 02:59:53;;;;;;;0.10;0.10;;;;;;;12.44;100.00;93436.06;2124750;27;20022;-89
2021/06/07 03:01:03;;;;;;;0.10;0.10;;;;;;;12.49;100.00;93427.53;2123973;27;20068;-88
2021/06/07 03:02:04;;;;;;;0.10;0.10;;;;;;;12.47;100.00;93440.59;2122342;27;20122;-85
2021/06/07 03:03:06;;;;;;;0.10;0.10;;;;;;;12.47;100.00;93432.56;2114297;28;20127;-87
2021/06/07 03:04:07;;;;;;;0.10;0.10;;;;;;;12.43;100.00;93438.00;2114907;28;20052;-87
2021/06/07 03:05:08;;;;;;;0.47;0.20;;;;;;;12.49;100.00;93430.19;2105063;28;20045;-88
2021/06/07 03:06:09;;;;;;;0.10;0.10;;;;;;;12.48;100.00;93428.69;2098583;28;20341;-87
2021/06/07 03:07:10;;;;;;;0.22;0.20;;;;;;;12.45;100.00;93430.28;2114809;27;20452;-85
2021/06/07 03:08:13;;;;;;;0.10;0.10;;;;;;;12.44;100.00;93428.78;2120321;27;20115;-87
2021/06/07 03:09:14;;;;;;;0.10;0.10;;;;;;;12.51;100.00;93427.84;2114703;27;20115;-86
2021/06/07 03:10:14;;;;;;;0.10;0.10;;;;;;;12.52;100.00;93424.75;2124978;27;20057;-85
2021/06/07 03:11:15;;;;;;;0.10;0.10;;;;;;;12.52;100.00;93429.38;2117720;28;20454;-90
2021/06/07 03:12:16;;;;;;;0.10;0.10;;;;;;;12.46;100.00;93442.50;2115139;28;20019;-86
2021/06/07 03:13:19;;;;;;;0.10;0.10;;;;;;;12.46;100.00;93433.72;2122941;27;20038;-87
2021/06/07 03:14:19;;;;;;;0.10;0.10;;;;;;;12.44;100.00;93436.06;2113320;28;20020;-88
2021/06/07 03:15:23;;;;;;;0.10;0.10;;;;;;;12.49;100.00;93432.88;2105814;28;20467;-88
2021/06/07 03:16:24;;;;;;;0.10;0.10;;;;;;;12.46;100.00;93431.78;2104561;28;20737;-87
2021/06/07 03:17:25;;;;;;;0.10;0.10;;;;;;;12.42;100.00;93433.78;2117649;27;20118;-87
2021/06/07 03:18:26;;;;;;;0.10;0.10;;;;;;;12.46;100.00;93428.34;2125428;27;20023;-87
2021/06/07 03:19:27;;;;;;;0.45;0.10;;;;;;;12.43;100.00;93429.22;2126541;27;20726;-88
2021/06/07 03:20:31;;;;;;;0.10;0.10;;;;;;;12.47;100.00;93433.31;2118239;27;20023;-85
2021/06/07 03:21:31;;;;;;;0.10;0.10;;;;;;;12.44;100.00;93428.78;2115856;27;20026;-89
2021/06/07 03:22:33;;;;;;;0.10;0.10;;;;;;;12.44;100.00;93426.09;2099390;28;20159;-90
2021/06/07 03:23:36;;;;;;;0.10;0.10;;;;;;;12.43;100.00;93423.84;2092429;28;20537;-86
2021/06/07 03:24:36;;;;;;;0.10;0.10;;;;;;;12.41;100.00;93426.94;2101018;28;20131;-86
2021/06/07 03:25:41;;;;;;;0.10;0.10;;;;;;;12.42;100.00;93433.03;2100699;28;20028;-89
2021/06/07 03:26:42;;;;;;;0.10;0.10;;;;;;;12.47;100.00;93440.59;2115774;27;20456;-85
2021/06/07 03:27:43;;;;;;;0.10;0.10;;;;;;;12.45;100.00;93430.28;2115769;27;20027;-88
2021/06/07 03:28:44;;;;;;;0.10;0.10;;;;;;;12.48;100.00;93431.38;2101012;28;20028;-86
2021/06/07 03:29:46;;;;;;;0.10;0.10;;;;;;;12.46;100.00;93423.72;2101162;28;20024;-88
2021/06/07 03:30:48;;;;;;;0.10;0.10;;;;;;;12.49;100.00;93430.94;2101443;28;20035;-89
2021/06/07 03:31:49;;;;;;;0.00;0.00;;;;;;;12.42;100.00;93433.03;2109506;28;20054;-87
2021/06/07 03:32:50;;;;;;;0.10;0.10;;;;;;;12.38;100.00;93433.16;2108344;28;20517;-86
2021/06/07 03:33:50;;;;;;;0.10;0.10;;;;;;;12.41;100.00;93426.19;2100395;28;20020;-87
2021/06/07 03:34:51;;;;;;;0.10;0.10;;;;;;;12.55;100.00;93426.56;2091882;28;20036;-90
2021/06/07 03:35:55;;;;;;;0.10;0.10;;;;;;;12.48;100.00;93426.00;2098201;28;20428;-88
2021/06/07 03:36:56;;;;;;;0.10;0.10;;;;;;;12.46;100.00;93423.72;2107500;28;20020;-88
2021/06/07 03:37:56;;;;;;;0.20;0.20;;;;;;;12.55;100.00;93426.56;2109431;28;20040;-88
2021/06/07 03:38:58;;;;;;;0.10;0.10;;;;;;;12.51;100.00;93420.56;2111366;28;20031;-88
2021/06/07 03:39:59;;;;;;;0.10;0.10;;;;;;;12.49;100.00;93428.28;2110380;28;20035;-89
2021/06/07 03:41:01;;;;;;;0.10;0.10;;;;;;;12.49;100.00;93428.28;2087712;28;20064;-86
2021/06/07 03:42:02;;;;;;;0.10;0.10;;;;;;;12.45;100.00;93421.47;2107042;28;20089;-87
2021/06/07 03:43:04;;;;;;;0.10;0.10;;;;;;;12.48;100.00;93423.34;2128825;27;20019;-86
2021/06/07 03:44:05;;;;;;;0.10;0.10;;;;;;;12.45;100.00;93426.84;2108469;28;20464;-89
2021/06/07 03:45:08;;;;;;;0.10;0.10;;;;;;;12.49;100.00;93427.53;2109223;28;20028;-87
2021/06/07 03:46:09;;;;;;;0.10;0.10;;;;;;;12.47;100.00;93425.25;2126265;27;20025;-88
2021/06/07 03:47:09;;;;;;;0.10;0.10;;;;;;;12.46;100.00;93422.97;2118681;27;20028;-87
2021/06/07 03:48:11;;;;;;;0.10;0.10;;;;;;;12.45;100.00;93429.53;2106049;28;20420;-88
2021/06/07 03:49:12;;;;;;;0.10;0.10;;;;;;;12.45;100.00;93421.47;2116719;27;20031;-86
2021/06/07 03:50:17;;;;;;;0.10;0.10;;;;;;;12.47;100.00;93424.50;2109177;28;20032;-85
2021/06/07 03:51:18;;;;;;;0.10;0.10;;;;;;;12.41;100.00;93418.88;2101832;28;20056;-86
2021/06/07 03:52:18;;;;;;;0.10;0.10;;;;;;;12.40;100.00;93422.00;2099389;28;20436;-86
2021/06/07 03:53:19;;;;;;;0.10;0.10;;;;;;;12.41;100.00;93426.19;2110543;28;20035;-87
2021/06/07 03:54:20;;;;;;;0.10;0.10;;;;;;;12.46;100.00;93423.72;2107612;28;20058;-85
2021/06/07 03:55:23;;;;;;;0.10;0.10;;;;;;;12.42;100.00;93422.31;2108941;28;20126;-87
2021/06/07 03:56:23;;;;;;;0.10;0.10;;;;;;;12.38;100.00;93427.00;2109788;28;20450;-87
2021/06/07 03:57:24;;;;;;;0.10;0.10;;;;;;;12.35;100.00;93429.38;2104470;28;20020;-87
2021/06/07 03:58:27;;;;;;;0.10;0.10;;;;;;;12.35;100.00;93436.66;2102749;28;20023;-90
2021/06/07 03:59:27;;;;;;;0.10;0.10;;;;;;;12.37;100.00;93420.13;2105586;27;20020;-85
2021/06/07 04:00:31;;;;;;;0.10;0.10;;;;;;;12.40;100.00;93425.44;2102592;28;20075;-88
2021/06/07 04:01:31;;;;;;;0.10;0.10;;;;;;;12.42;100.00;93420.38;2102139;28;20035;-89
2021/06/07 04:02:32;;;;;;;0.10;0.10;;;;;;;12.42;100.00;93415.03;2088470;28;20020;-89
2021/06/07 04:03:34;;;;;;;0.10;0.10;;;;;;;12.43;100.00;93421.91;2090121;28;20119;-91
2021/06/07 04:04:35;;;;;;;0.10;0.10;;;;;;;12.43;100.00;93424.59;2099113;28;20031;-89
2021/06/07 04:05:38;;;;;;;0.10;0.10;;;;;;;12.41;100.00;93421.56;2105013;28;20041;-87
2021/06/07 04:06:38;;;;;;;0.10;0.10;;;;;;;12.40;100.00;93425.44;2116106;27;20402;-89
2021/06/07 04:07:39;;;;;;;0.10;0.10;;;;;;;12.39;100.00;93423.16;2108839;28;20023;-89
2021/06/07 04:08:40;;;;;;;0.10;0.10;;;;;;;12.41;100.00;93426.19;2100184;28;20362;-86
2021/06/07 04:09:42;;;;;;;0.10;0.10;;;;;;;12.45;100.00;93419.56;2117375;27;20058;-88
2021/06/07 04:10:46;;;;;;;0.00;0.00;;;;;;;12.44;100.00;93425.34;2115582;27;20057;-87
2021/06/07 04:11:48;;;;;;;0.10;0.10;;;;;;;12.39;100.00;93429.28;2109950;27;20035;-86
2021/06/07 04:12:50;;;;;;;0.10;0.10;;;;;;;12.42;100.00;93423.06;2116015;27;20047;-85
2021/06/07 04:13:51;;;;;;;0.10;0.10;;;;;;;12.43;100.00;93421.91;2110255;28;20055;-88
2021/06/07 04:14:52;;;;;;;0.10;0.10;;;;;;;12.44;100.00;93412.69;2101615;28;20115;-85
2021/06/07 04:15:53;;;;;;;0.10;0.10;;;;;;;12.40;100.00;93419.31;2097418;28;20067;-88
2021/06/07 04:16:53;;;;;;;0.10;0.10;;;;;;;12.40;100.00;93424.66;2101998;28;20051;-87
2021/06/07 04:17:55;;;;;;;0.10;0.10;;;;;;;12.41;100.00;93418.13;2101661;28;20063;-87
2021/06/07 04:18:56;;;;;;;0.10;0.10;;;;;;;12.41;100.00;93423.50;2100573;28;20025;-89
2021/06/07 04:19:57;;;;;;;0.10;0.10;;;;;;;12.44;100.00;93425.34;2100387;28;20036;-87
2021/06/07 04:20:58;;;;;;;0.10;0.10;;;;;;;12.43;100.00;93421.16;2101041;28;20059;-85
2021/06/07 04:21:58;;;;;;;0.10;0.10;;;;;;;12.39;100.00;93423.91;2107757;28;20028;-88
2021/06/07 04:22:59;;;;;;;0.10;0.10;;;;;;;12.43;100.00;93419.22;2099108;28;20020;-89
2021/06/07 04:24:00;;;;;;;0.10;0.10;;;;;;;12.46;100.00;93420.31;2092309;28;20163;-87
2021/06/07 04:25:00;;;;;;;0.10;0.10;;;;;;;12.49;100.00;93422.16;2092943;28;20432;-88
2021/06/07 04:26:01;;;;;;;0.10;0.10;;;;;;;12.43;100.00;93424.59;2100877;28;20111;-87
2021/06/07 04:27:03;;;;;;;0.10;0.10;;;;;;;12.43;100.00;93429.97;2108736;28;20019;-86
2021/06/07 04:28:04;;;;;;;0.10;0.10;;;;;;;12.45;100.00;93419.56;2107797;28;20473;-91
2021/06/07 04:29:05;;;;;;;0.10;0.10;;;;;;;12.51;100.00;93425.16;2107264;27;20040;-88
2021/06/07 04:30:11;;;;;;;0.10;0.10;;;;;;;12.47;100.00;93417.22;2107967;28;20030;-87
2021/06/07 04:31:12;;;;;;;0.10;0.10;;;;;;;12.48;100.00;93426.75;2106012;27;20476;-90
2021/06/07 04:32:12;;;;;;;0.10;0.10;;;;;;;12.45;100.00;93424.16;2115154;27;20032;-88
2021/06/07 04:33:13;;;;;;;0.17;0.17;;;;;;;12.40;100.00;93420.06;2107320;28;20032;-88
2021/06/07 04:34:14;;;;;;;0.10;0.10;;;;;;;12.45;100.00;93419.56;2101542;28;20024;-85
2021/06/07 04:35:16;;;;;;;0.10;0.10;;;;;;;12.48;100.00;93426.00;2105774;28;20100;-87
2021/06/07 04:36:17;;;;;;;0.10;0.10;;;;;;;12.54;100.00;93425.06;2098323;28;20239;-87
2021/06/07 04:37:17;;;;;;;0.10;0.10;;;;;;;12.53;100.00;93415.53;2102161;28;20208;-86
2021/06/07 04:38:18;;;;;;;0.10;0.10;;;;;;;12.44;100.00;93423.41;2094686;28;20028;-89
2021/06/07 04:39:19;;;;;;;0.10;0.10;;;;;;;12.48;100.00;93424.09;2100638;28;20396;-87
2021/06/07 04:40:30;;;;;;;0.10;0.10;;;;;;;12.53;100.00;93428.19;2107396;28;20020;-87
2021/06/07 04:41:31;;;;;;;0.20;0.10;;;;;;;12.54;100.00;93421.66;2111914;27;20027;-88
2021/06/07 04:42:31;;;;;;;0.10;0.10;;;;;;;12.51;100.00;93419.78;2117523;27;20076;-86
2021/06/07 04:43:32;;;;;;;0.10;0.10;;;;;;;12.60;100.00;93422.66;2119845;27;20030;-85
2021/06/07 04:44:33;;;;;;;0.00;0.00;;;;;;;12.57;100.00;93418.13;2122755;27;20022;-88
2021/06/07 04:45:35;;;;;;;0.10;0.10;;;;;;;12.54;100.00;93425.06;2108416;28;20031;-85
2021/06/07 04:46:35;;;;;;;0.10;0.10;;;;;;;12.53;100.00;93420.16;2115627;27;20019;-89
2021/06/07 04:47:36;;;;;;;0.10;0.10;;;;;;;12.50;100.00;93424.41;2117488;27;20360;-88
2021/06/07 04:48:38;;;;;;;0.10;0.10;;;;;;;12.51;100.00;93422.47;2117993;27;20069;-89